KLAS

Mc Carran International Airport

Las Vegas, Nevada, USA
METAR KLAS 212356Z 11004KT 10SM FEW100 SCT120 BKN200 09/M12 A3007 RMK AO2 SLP186 ACSL E T00941122 10100 20072 56008
Observed Flight Rules
Feb-21 @ 23:56 UTC (5 hours ago) Visual Flight Rules
Wind Visibility Clouds
110° at 4 knots 10 miles
  • Few at 10,000' AGL
  • Scattered at 12,000' AGL
  • Broken at 20,000' AGL
Temperatures Readings
Current 9°C / 48°F
Dewpoint -12°C / 10°F
Humidity 21%
Altimeter 30.07" Hg
Pressure 1018.6 hPa
Elevation 636
METAR KLAS 212356Z 11004KT 10SM FEW100 SCT120 BKN200 09/M12 A3007 RMK AO2 SLP186 ACSL E T00941122 10100 20072 56008
Observed Flight Rules
Feb-21 @ 23:56 UTC
(5 hours ago)
VFR
Wind Visibility
110° at 4 knots 10 miles
Clouds
  • Few at 10,000' AGL
  • Scattered at 12,000' AGL
  • Broken at 20,000' AGL
Temperature Dewpoint
9°C / 48°F -12°C / 10°F
Humidity Altimeter Pressure
21% 30.07" Hg 1018.6 hPa